This is the latest recevied weather packets stored in our database for station/object K0TNT-10. If no packets are shown the sender has not sent any weather packets the latest 10 day(s).
| Time | Temp. | Humidity | Pressure | Rain* | Wind** | Luminosity | Snow |
|---|---|---|---|---|---|---|---|
| 1778017556 | 12.78° C | 56% | 1011.8 hPa | 0 mm | - | - | - |
| 1778013925 | 12.22° C | 72% | 1012.2 hPa | 0 mm | - | - | - |
| 1777994157 | 8.33° C | 89% | 1012.5 hPa | 1.78 mm | - | - | - |
| 1777994107 | 8.33° C | 89% | 1012.5 hPa | 1.78 mm | - | - | - |
| 1777989654 | 8.33° C | 86% | 1012.1 hPa | 0.76 mm | - | - | - |
| 1777982439 | 10° C | 71% | 1010.5 hPa | 0 mm | - | - | - |
| 1777974350 | 12.22° C | 47% | 1008.1 hPa | 0 mm | - | - | - |
| 1777971612 | 12.78° C | 45% | 1007.9 hPa | 0 mm | - | - | - |
| 1777968923 | 12.78° C | 46% | 1008.3 hPa | 0 mm | - | - | - |
| 1777967115 | 12.78° C | 47% | 1007.4 hPa | 0 mm | - | - | - |
| 1777963553 | 13.89° C | 45% | 1007.2 hPa | 0 mm | - | - | - |
| 1777962660 | 14.44° C | 44% | 1007.3 hPa | 0 mm | - | - | - |
| 1777960858 | 15° C | 43% | 1007.1 hPa | 0 mm | - | - | - |
| 1777958140 | 17.22° C | 39% | 1006.1 hPa | 0 mm | - | - | - |
| 1777956333 | 18.33° C | 38% | 1004.6 hPa | 0 mm | - | - | - |
| 1777952745 | 20° C | 38% | 1004.1 hPa | 0 mm | - | - | - |
| 1777951824 | 20° C | 38% | 1003.9 hPa | 0 mm | - | - | - |
| 1777947346 | 22.78° C | 45% | 1001.5 hPa | 0 mm | - | - | - |
| 1777945518 | 22.78° C | 55% | 1000.6 hPa | 0 mm | - | - | - |
| 1777943730 | 23.89° C | 50% | 1000.2 hPa | 0 mm | - | - | - |
| 1777942836 | 25° C | 47% | 1000 hPa | 0 mm | - | - | - |
| 1777940120 | 26.67° C | 40% | 1000.1 hPa | 0 mm | - | - | - |
| 1777937405 | 28.33° C | 37% | 1000.1 hPa | 0 mm | - | - | - |
| 1777926611 | 29.44° C | 30% | 1000.7 hPa | 0 mm | - | - | - |
| 1777919457 | 30.56° C | 29% | 1001.3 hPa | 0 mm | - | - | - |
* Rain latest hour (hover to see other rain measurements)
** Current wind speed in m/s (hover to see current wind gust speed)